createdAt,value
2023-02-11T00:00:19.491Z,31.9
2023-02-11T00:05:16.311Z,31.7
2023-02-11T00:10:19.406Z,32.0
2023-02-11T00:15:19.376Z,31.8
2023-02-11T00:20:19.443Z,32.1
2023-02-11T00:25:16.462Z,32.0
2023-02-11T00:30:19.407Z,31.9
2023-02-11T00:35:19.422Z,31.8
2023-02-11T00:40:19.354Z,31.6
2023-02-11T00:45:19.425Z,31.9
2023-02-11T00:50:19.400Z,31.8
2023-02-11T00:55:16.419Z,31.7
2023-02-11T01:00:19.458Z,31.6
2023-02-11T01:05:19.505Z,31.5
2023-02-11T01:10:16.540Z,31.4
2023-02-11T01:15:16.456Z,31.3
2023-02-11T01:20:19.410Z,31.2
2023-02-11T01:25:16.468Z,31.5
2023-02-11T01:30:19.565Z,31.5
2023-02-11T01:35:19.463Z,31.5
2023-02-11T01:40:16.475Z,31.3
2023-02-11T01:45:19.504Z,31.2
2023-02-11T01:50:16.482Z,31.1
2023-02-11T01:55:19.493Z,31.5
2023-02-11T02:00:16.455Z,31.0
2023-02-11T02:05:16.451Z,31.4
2023-02-11T02:10:16.502Z,31.3
2023-02-11T02:15:19.524Z,31.2
2023-02-11T02:20:19.535Z,31.2
2023-02-11T02:25:19.480Z,31.2
2023-02-11T02:30:19.430Z,31.1
2023-02-11T02:35:19.454Z,31.4
2023-02-11T02:40:19.507Z,31.3
2023-02-11T02:45:19.442Z,31.2
2023-02-11T02:50:16.503Z,31.2
2023-02-11T02:55:19.677Z,31.1
2023-02-11T03:00:19.512Z,31.1
2023-02-11T03:05:16.526Z,31.4
2023-02-11T03:10:19.491Z,31.4
2023-02-11T03:15:19.636Z,31.3
2023-02-11T03:20:16.538Z,31.3
2023-02-11T03:25:16.564Z,31.2
2023-02-11T03:30:19.614Z,31.2
2023-02-11T03:35:19.506Z,31.2
2023-02-11T03:40:19.536Z,31.2
2023-02-11T03:45:16.574Z,31.1
2023-02-11T03:50:19.536Z,31.1
2023-02-11T03:55:19.516Z,31.2
2023-02-11T04:00:19.507Z,31.2
2023-02-11T04:05:19.670Z,31.2
2023-02-11T04:10:19.519Z,31.2
2023-02-11T04:15:16.570Z,31.2
2023-02-11T04:20:19.552Z,31.2
2023-02-11T04:25:19.514Z,31.3
2023-02-11T04:30:19.564Z,31.3
2023-02-11T04:35:16.548Z,30.9
2023-02-11T04:40:19.599Z,30.9
2023-02-11T04:45:19.508Z,30.9
2023-02-11T04:50:19.526Z,30.8
2023-02-11T04:55:19.585Z,30.4
2023-02-11T05:00:15.813Z,30.4
2023-02-11T05:05:18.895Z,30.3
2023-02-11T05:10:18.872Z,30.3
2023-02-11T05:15:18.883Z,29.9
2023-02-11T05:20:15.846Z,29.8
2023-02-11T05:25:18.817Z,29.8
2023-02-11T05:30:15.793Z,29.7
2023-02-11T05:35:18.899Z,29.7
2023-02-11T05:40:15.823Z,29.7
2023-02-11T05:45:15.871Z,29.7
2023-02-11T05:50:16.936Z,29.7
2023-02-11T05:55:18.819Z,29.4
2023-02-11T06:00:15.890Z,29.1
2023-02-11T06:05:18.832Z,29.1
2023-02-11T06:10:18.870Z,28.8
2023-02-11T06:15:18.801Z,28.8
2023-02-11T06:20:18.941Z,28.8
2023-02-11T06:25:18.792Z,28.3
2023-02-11T06:30:18.794Z,28.3
2023-02-11T06:35:18.872Z,28.2
2023-02-11T06:40:18.818Z,27.7
2023-02-11T06:45:18.954Z,27.6
2023-02-11T06:50:18.867Z,27.0
2023-02-11T06:55:18.818Z,26.5
2023-02-11T07:00:18.818Z,26.4
2023-02-11T07:05:18.833Z,25.7
2023-02-11T07:10:18.816Z,25.6
2023-02-11T07:15:18.947Z,25.6
2023-02-11T07:20:18.865Z,25.4
2023-02-11T07:25:15.891Z,24.7
2023-02-11T07:30:15.729Z,24.2
2023-02-11T07:35:18.872Z,23.5
2023-02-11T07:40:18.950Z,23.0
2023-02-11T07:45:15.948Z,22.4
2023-02-11T07:50:18.918Z,22.3
2023-02-11T07:55:15.932Z,21.1
2023-02-11T08:00:21.123Z,20.0
2023-02-11T08:05:18.872Z,19.9
2023-02-11T08:10:15.946Z,19.3
2023-02-11T08:15:18.902Z,19.2
2023-02-11T08:20:18.923Z,19.1
2023-02-11T08:25:15.930Z,19.0
2023-02-11T08:30:18.904Z,18.9
2023-02-11T08:35:18.993Z,19.3
2023-02-11T08:40:18.897Z,19.2
2023-02-11T08:45:15.956Z,19.0
2023-02-11T08:50:15.979Z,19.4
2023-02-11T08:55:18.952Z,19.9
2023-02-11T09:00:18.932Z,20.3
2023-02-11T09:05:18.894Z,20.2
2023-02-11T09:10:18.962Z,20.5
2023-02-11T09:15:18.937Z,20.4
2023-02-11T09:20:18.938Z,20.7
2023-02-11T09:25:18.983Z,21.0
2023-02-11T09:30:18.921Z,21.3
2023-02-11T09:35:15.964Z,21.2
2023-02-11T09:40:16.030Z,21.6
2023-02-11T09:45:19.059Z,21.5
2023-02-11T09:50:15.967Z,21.8
2023-02-11T09:55:16.027Z,21.7
2023-02-11T10:00:19.030Z,22.1
2023-02-11T10:05:18.958Z,22.0
2023-02-11T10:10:19.000Z,21.9
2023-02-11T10:15:18.962Z,21.8
2023-02-11T10:20:19.089Z,21.7
2023-02-11T10:25:16.044Z,21.7
2023-02-11T10:30:19.002Z,22.0
2023-02-11T10:35:18.993Z,22.0
2023-02-11T10:40:16.039Z,21.9
2023-02-11T10:45:19.064Z,21.5
2023-02-11T10:50:16.044Z,21.5
2023-02-11T10:55:16.132Z,21.4
2023-02-11T11:00:16.042Z,21.4
2023-02-11T11:05:19.036Z,21.4
2023-02-11T11:10:19.052Z,21.4
2023-02-11T11:15:18.999Z,21.4
2023-02-11T11:20:16.028Z,21.3
2023-02-11T11:25:16.036Z,21.8
2023-02-11T11:30:19.106Z,21.7
2023-02-11T11:35:16.048Z,21.7
2023-02-11T11:40:18.991Z,21.6
2023-02-11T11:45:18.961Z,21.5
2023-02-11T11:50:21.107Z,21.5
2023-02-11T11:55:18.985Z,21.4
2023-02-11T12:00:16.046Z,21.4
2023-02-11T12:05:16.068Z,21.7
2023-02-11T12:10:19.025Z,21.7
2023-02-11T12:15:18.978Z,21.7
2023-02-11T12:20:19.080Z,21.7
2023-02-11T12:25:19.023Z,21.8
2023-02-11T12:30:19.118Z,21.8
2023-02-11T12:35:19.026Z,21.9
2023-02-11T12:40:16.036Z,21.9
2023-02-11T12:45:19.037Z,22.0
2023-02-11T12:50:16.138Z,21.7
2023-02-11T12:55:19.058Z,21.8
2023-02-11T13:00:19.029Z,21.9
2023-02-11T13:05:19.014Z,22.0
2023-02-11T13:10:19.172Z,22.1
2023-02-11T13:15:19.013Z,22.2
2023-02-11T13:20:19.127Z,22.4
2023-02-11T13:25:16.038Z,22.5
2023-02-11T13:30:16.105Z,22.7
2023-02-11T13:35:19.115Z,22.8
2023-02-11T13:40:16.136Z,22.5
2023-02-11T13:45:16.217Z,22.7
2023-02-11T13:50:19.051Z,22.8
2023-02-11T13:55:19.046Z,22.6
2023-02-11T14:00:19.061Z,22.8
2023-02-11T14:05:16.088Z,22.5
2023-02-11T14:10:19.141Z,22.4
2023-02-11T14:15:19.044Z,22.6
2023-02-11T14:20:16.101Z,22.3
2023-02-11T14:25:19.090Z,22.6
2023-02-11T14:30:19.136Z,22.6
2023-02-11T14:35:19.106Z,22.0
2023-02-11T14:40:19.128Z,21.9
2023-02-11T14:45:16.080Z,22.4
2023-02-11T14:50:16.270Z,21.8
2023-02-11T14:55:19.152Z,21.9
2023-02-11T15:00:16.214Z,22.2
2023-02-11T15:05:19.201Z,22.4
2023-02-11T15:10:19.140Z,22.7
2023-02-11T15:15:19.126Z,22.7
2023-02-11T15:20:16.171Z,22.9
2023-02-11T15:25:19.399Z,22.9
2023-02-11T15:30:19.114Z,23.1
2023-02-11T15:35:19.117Z,22.6
2023-02-11T15:40:19.141Z,22.7
2023-02-11T15:45:19.162Z,21.8
2023-02-11T15:50:19.178Z,21.7
2023-02-11T15:55:19.240Z,22.5
2023-02-11T16:00:16.257Z,22.1
2023-02-11T16:05:16.006Z,21.2
2023-02-11T16:10:16.195Z,21.5
2023-02-11T16:15:16.209Z,21.0
2023-02-11T16:20:16.219Z,21.1
2023-02-11T16:25:18.889Z,20.5
2023-02-11T16:30:19.313Z,19.7
2023-02-11T16:35:19.197Z,18.6
2023-02-11T16:40:19.111Z,19.4
2023-02-11T16:45:16.216Z,19.5
2023-02-11T16:50:19.286Z,17.7
2023-02-11T16:55:20.881Z,18.7
2023-02-11T17:00:16.416Z,18.0
2023-02-11T17:05:19.299Z,17.6
2023-02-11T17:10:19.198Z,16.8
2023-02-11T17:15:16.184Z,16.1
2023-02-11T17:20:19.269Z,16.2
2023-02-11T17:25:19.170Z,16.2
2023-02-11T17:30:16.330Z,15.5
2023-02-11T17:35:19.220Z,15.1
2023-02-11T17:40:16.419Z,15.1
2023-02-11T17:45:16.225Z,14.0
2023-02-11T17:50:19.230Z,13.8
2023-02-11T17:55:19.180Z,13.5
2023-02-11T18:00:16.242Z,13.7
2023-02-11T18:05:19.416Z,13.6
2023-02-11T18:10:19.376Z,13.3
2023-02-11T18:15:19.225Z,13.6
2023-02-11T18:20:19.222Z,13.4
2023-02-11T18:25:16.247Z,13.3
2023-02-11T18:30:19.209Z,14.5
2023-02-11T18:35:16.238Z,13.9
2023-02-11T18:40:19.198Z,13.4
2023-02-11T18:45:16.223Z,13.7
2023-02-11T18:50:16.263Z,12.8
2023-02-11T18:55:21.371Z,11.9
2023-02-11T19:00:19.272Z,11.9
2023-02-11T19:05:16.277Z,11.9
2023-02-11T19:10:19.357Z,12.2
2023-02-11T19:15:16.354Z,12.2
2023-02-11T19:20:16.246Z,12.4
2023-02-11T19:25:16.335Z,12.3
2023-02-11T19:30:19.245Z,11.8
2023-02-11T19:35:16.272Z,11.4
2023-02-11T19:40:19.243Z,11.8
2023-02-11T19:45:16.373Z,12.8
2023-02-11T19:50:16.279Z,12.5
2023-02-11T19:55:19.318Z,12.6
2023-02-11T20:00:19.306Z,11.7
2023-02-11T20:05:19.284Z,11.7
2023-02-11T20:10:19.251Z,11.2
2023-02-11T20:15:16.331Z,12.3
2023-02-11T20:20:19.426Z,12.4
2023-02-11T20:25:16.316Z,12.8
2023-02-11T20:30:19.253Z,12.2
2023-02-11T20:35:16.355Z,12.3
2023-02-11T20:40:19.326Z,12.0
2023-02-11T20:45:16.317Z,12.1
2023-02-11T20:50:19.454Z,12.7
2023-02-11T20:55:19.313Z,12.5
2023-02-11T21:00:16.315Z,12.5
2023-02-11T21:05:19.373Z,12.4
2023-02-11T21:10:19.311Z,12.8
2023-02-11T21:15:19.284Z,12.8
2023-02-11T21:20:16.479Z,12.5
2023-02-11T21:25:19.327Z,12.3
2023-02-11T21:30:19.430Z,12.4
2023-02-11T21:35:16.324Z,11.1
2023-02-11T21:40:16.355Z,11.8
2023-02-11T21:45:19.402Z,11.6
2023-02-11T21:50:19.339Z,11.4
2023-02-11T21:55:19.401Z,12.1
2023-02-11T22:00:16.418Z,11.2
2023-02-11T22:05:19.440Z,11.1
2023-02-11T22:10:19.329Z,10.9
2023-02-11T22:15:19.329Z,11.5
2023-02-11T22:20:19.329Z,11.4
2023-02-11T22:25:19.298Z,12.2
2023-02-11T22:30:19.445Z,12.0
2023-02-11T22:35:16.216Z,11.7
2023-02-11T22:40:16.545Z,12.3
2023-02-11T22:45:19.416Z,12.8
2023-02-11T22:50:16.413Z,12.2
2023-02-11T22:55:16.429Z,12.9
2023-02-11T23:00:19.389Z,13.4
2023-02-11T23:05:19.351Z,13.3
2023-02-11T23:10:19.450Z,13.0
2023-02-11T23:15:19.390Z,13.6
2023-02-11T23:20:19.402Z,13.6
2023-02-11T23:25:16.365Z,13.6
2023-02-11T23:30:19.418Z,13.5
2023-02-11T23:35:19.338Z,13.4
2023-02-11T23:40:16.405Z,13.4
2023-02-11T23:45:19.560Z,13.9
2023-02-11T23:50:16.428Z,13.8
2023-02-11T23:55:19.428Z,14.4
